sensor_id;sensor_type;location;lat;lon;timestamp;temperature;humidity
54516;DHT22;40422;45.892;4.738;2023-07-13T03:01:05;20.80;99.90
54516;DHT22;40422;45.892;4.738;2023-07-13T03:03:31;20.80;99.90
54516;DHT22;40422;45.892;4.738;2023-07-13T03:05:59;20.70;99.90
54516;DHT22;40422;45.892;4.738;2023-07-13T03:08:25;20.60;99.90
54516;DHT22;40422;45.892;4.738;2023-07-13T03:11:00;20.50;99.90
54516;DHT22;40422;45.892;4.738;2023-07-13T03:13:26;20.50;99.90
54516;DHT22;40422;45.892;4.738;2023-07-13T03:15:51;20.40;99.90
54516;DHT22;40422;45.892;4.738;2023-07-13T03:18:17;20.40;99.90
54516;DHT22;40422;45.892;4.738;2023-07-13T03:20:42;20.40;99.90
54516;DHT22;40422;45.892;4.738;2023-07-13T03:23:08;20.40;99.90
54516;DHT22;40422;45.892;4.738;2023-07-13T03:25:37;20.40;99.90
54516;DHT22;40422;45.892;4.738;2023-07-13T03:28:03;20.40;99.90
54516;DHT22;40422;45.892;4.738;2023-07-13T03:30:29;20.40;99.90
54516;DHT22;40422;45.892;4.738;2023-07-13T03:32:55;20.40;99.90
54516;DHT22;40422;45.892;4.738;2023-07-13T03:35:21;20.30;99.90
54516;DHT22;40422;45.892;4.738;2023-07-13T03:37:46;20.30;99.90
54516;DHT22;40422;45.892;4.738;2023-07-13T03:40:12;20.30;99.90
54516;DHT22;40422;45.892;4.738;2023-07-13T03:42:38;20.30;99.90
54516;DHT22;40422;45.892;4.738;2023-07-13T03:45:04;20.30;99.90
54516;DHT22;40422;45.892;4.738;2023-07-13T03:47:29;20.40;99.90
54516;DHT22;40422;45.892;4.738;2023-07-13T03:49:55;20.40;99.90
54516;DHT22;40422;45.892;4.738;2023-07-13T03:52:20;20.40;99.90
54516;DHT22;40422;45.892;4.738;2023-07-13T03:54:46;20.40;99.90
54516;DHT22;40422;45.892;4.738;2023-07-13T03:57:12;20.40;99.90
54516;DHT22;40422;45.892;4.738;2023-07-13T03:59:38;20.30;99.90
54516;DHT22;40422;45.892;4.738;2023-07-13T04:02:03;20.30;99.90
54516;DHT22;40422;45.892;4.738;2023-07-13T04:04:29;20.30;99.90
54516;DHT22;40422;45.892;4.738;2023-07-13T04:06:58;20.30;99.90
54516;DHT22;40422;45.892;4.738;2023-07-13T04:09:24;20.20;99.90
54516;DHT22;40422;45.892;4.738;2023-07-13T04:11:50;20.20;99.90
54516;DHT22;40422;45.892;4.738;2023-07-13T04:14:16;20.10;99.90
54516;DHT22;40422;45.892;4.738;2023-07-13T04:16:42;20.10;99.90
54516;DHT22;40422;45.892;4.738;2023-07-13T04:19:08;20.10;99.90
54516;DHT22;40422;45.892;4.738;2023-07-13T04:21:36;20.10;99.90
54516;DHT22;40422;45.892;4.738;2023-07-13T04:24:02;20.10;99.90
54516;DHT22;40422;45.892;4.738;2023-07-13T04:26:29;20.10;99.90
54516;DHT22;40422;45.892;4.738;2023-07-13T04:28:55;20.10;99.90
54516;DHT22;40422;45.892;4.738;2023-07-13T04:31:21;20.10;99.90
54516;DHT22;40422;45.892;4.738;2023-07-13T04:33:50;20.00;99.90
54516;DHT22;40422;45.892;4.738;2023-07-13T04:36:16;20.00;99.90
54516;DHT22;40422;45.892;4.738;2023-07-13T04:38:42;20.00;99.90
54516;DHT22;40422;45.892;4.738;2023-07-13T04:41:08;20.00;99.90
54516;DHT22;40422;45.892;4.738;2023-07-13T04:43:35;20.00;99.90
54516;DHT22;40422;45.892;4.738;2023-07-13T04:46:08;20.00;99.90
54516;DHT22;40422;45.892;4.738;2023-07-13T04:48:35;20.00;99.90
54516;DHT22;40422;45.892;4.738;2023-07-13T04:51:01;19.90;99.90
54516;DHT22;40422;45.892;4.738;2023-07-13T04:53:27;19.80;99.90
54516;DHT22;40422;45.892;4.738;2023-07-13T04:56:00;19.80;99.90
54516;DHT22;40422;45.892;4.738;2023-07-13T04:58:26;19.90;99.90
54516;DHT22;40422;45.892;4.738;2023-07-13T05:00:52;20.00;99.90
54516;DHT22;40422;45.892;4.738;2023-07-13T05:03:18;20.20;99.90
54516;DHT22;40422;45.892;4.738;2023-07-13T05:05:53;20.30;99.90
54516;DHT22;40422;45.892;4.738;2023-07-13T05:08:19;20.50;99.90
54516;DHT22;40422;45.892;4.738;2023-07-13T05:10:45;20.80;99.90
54516;DHT22;40422;45.892;4.738;2023-07-13T05:13:11;20.90;99.90
54516;DHT22;40422;45.892;4.738;2023-07-13T05:15:36;21.10;99.90
54516;DHT22;40422;45.892;4.738;2023-07-13T05:18:02;21.40;99.90
54516;DHT22;40422;45.892;4.738;2023-07-13T05:20:27;21.50;99.90
54516;DHT22;40422;45.892;4.738;2023-07-13T05:22:53;21.70;99.90
54516;DHT22;40422;45.892;4.738;2023-07-13T05:25:19;21.90;99.90
54516;DHT22;40422;45.892;4.738;2023-07-13T05:27:44;22.10;99.90
54516;DHT22;40422;45.892;4.738;2023-07-13T05:30:11;22.20;99.90
54516;DHT22;40422;45.892;4.738;2023-07-13T05:32:37;22.30;99.90
54516;DHT22;40422;45.892;4.738;2023-07-13T05:35:03;22.30;99.90
54516;DHT22;40422;45.892;4.738;2023-07-13T05:37:29;22.40;99.90
54516;DHT22;40422;45.892;4.738;2023-07-13T05:39:54;22.50;99.90
54516;DHT22;40422;45.892;4.738;2023-07-13T05:42:20;22.50;99.90
54516;DHT22;40422;45.892;4.738;2023-07-13T05:44:45;22.60;99.90
54516;DHT22;40422;45.892;4.738;2023-07-13T05:47:11;22.70;99.90
54516;DHT22;40422;45.892;4.738;2023-07-13T05:49:37;22.70;99.90
54516;DHT22;40422;45.892;4.738;2023-07-13T05:52:03;22.80;99.90
54516;DHT22;40422;45.892;4.738;2023-07-13T05:54:28;22.80;99.90
54516;DHT22;40422;45.892;4.738;2023-07-13T05:56:55;22.90;99.90
54516;DHT22;40422;45.892;4.738;2023-07-13T05:59:20;22.90;99.90
54516;DHT22;40422;45.892;4.738;2023-07-13T06:01:46;23.00;99.90
54516;DHT22;40422;45.892;4.738;2023-07-13T06:04:12;23.10;99.90
54516;DHT22;40422;45.892;4.738;2023-07-13T06:06:37;23.20;99.90
54516;DHT22;40422;45.892;4.738;2023-07-13T06:09:03;23.20;99.90
54516;DHT22;40422;45.892;4.738;2023-07-13T06:11:29;23.30;99.90
54516;DHT22;40422;45.892;4.738;2023-07-13T06:13:55;23.40;99.90
54516;DHT22;40422;45.892;4.738;2023-07-13T06:16:21;23.30;99.90
54516;DHT22;40422;45.892;4.738;2023-07-13T06:18:47;23.10;99.40
54516;DHT22;40422;45.892;4.738;2023-07-13T06:21:15;23.00;99.90
54516;DHT22;40422;45.892;4.738;2023-07-13T06:23:41;23.10;99.90
54516;DHT22;40422;45.892;4.738;2023-07-13T06:26:08;23.00;99.90
54516;DHT22;40422;45.892;4.738;2023-07-13T06:28:35;23.00;99.90
54516;DHT22;40422;45.892;4.738;2023-07-13T06:31:01;23.00;99.90
54516;DHT22;40422;45.892;4.738;2023-07-13T06:33:27;23.10;99.90
54516;DHT22;40422;45.892;4.738;2023-07-13T06:35:53;23.10;99.90
54516;DHT22;40422;45.892;4.738;2023-07-13T06:38:20;23.10;99.90
54516;DHT22;40422;45.892;4.738;2023-07-13T06:40:46;23.10;99.90
54516;DHT22;40422;45.892;4.738;2023-07-13T06:43:11;23.20;99.90
54516;DHT22;40422;45.892;4.738;2023-07-13T06:45:43;23.00;99.00
54516;DHT22;40422;45.892;4.738;2023-07-13T06:48:11;23.10;99.90
54516;DHT22;40422;45.892;4.738;2023-07-13T06:50:37;23.20;99.90
54516;DHT22;40422;45.892;4.738;2023-07-13T06:53:02;23.40;98.50
54516;DHT22;40422;45.892;4.738;2023-07-13T06:55:28;23.20;98.00
54516;DHT22;40422;45.892;4.738;2023-07-13T06:57:53;23.30;98.60
54516;DHT22;40422;45.892;4.738;2023-07-13T07:00:19;23.30;98.10
54516;DHT22;40422;45.892;4.738;2023-07-13T07:02:46;23.40;98.40
54516;DHT22;40422;45.892;4.738;2023-07-13T07:05:13;23.60;99.90
54516;DHT22;40422;45.892;4.738;2023-07-13T07:07:39;23.80;99.90
54516;DHT22;40422;45.892;4.738;2023-07-13T07:10:05;23.90;97.20
54516;DHT22;40422;45.892;4.738;2023-07-13T07:12:30;23.90;97.50
54516;DHT22;40422;45.892;4.738;2023-07-13T07:14:56;24.00;97.30
54516;DHT22;40422;45.892;4.738;2023-07-13T07:17:22;24.10;99.80
54516;DHT22;40422;45.892;4.738;2023-07-13T07:19:49;24.10;98.70
54516;DHT22;40422;45.892;4.738;2023-07-13T07:22:15;24.10;96.90
54516;DHT22;40422;45.892;4.738;2023-07-13T07:24:41;24.10;97.00
54516;DHT22;40422;45.892;4.738;2023-07-13T07:27:07;24.00;99.90
54516;DHT22;40422;45.892;4.738;2023-07-13T07:29:33;24.00;99.70
54516;DHT22;40422;45.892;4.738;2023-07-13T07:31:59;24.10;99.90
54516;DHT22;40422;45.892;4.738;2023-07-13T07:34:25;24.30;99.30
54516;DHT22;40422;45.892;4.738;2023-07-13T07:36:51;24.40;98.00
54516;DHT22;40422;45.892;4.738;2023-07-13T07:39:18;24.50;97.30
54516;DHT22;40422;45.892;4.738;2023-07-13T07:41:43;24.60;99.20
54516;DHT22;40422;45.892;4.738;2023-07-13T07:44:09;24.50;95.70
54516;DHT22;40422;45.892;4.738;2023-07-13T07:46:35;24.50;95.40
54516;DHT22;40422;45.892;4.738;2023-07-13T07:49:01;24.60;97.60
54516;DHT22;40422;45.892;4.738;2023-07-13T07:51:27;24.80;96.40
54516;DHT22;40422;45.892;4.738;2023-07-13T07:53:53;24.80;94.60
54516;DHT22;40422;45.892;4.738;2023-07-13T07:56:18;24.80;94.40
54516;DHT22;40422;45.892;4.738;2023-07-13T07:58:44;24.60;96.40
54516;DHT22;40422;45.892;4.738;2023-07-13T08:01:10;24.70;96.00
54516;DHT22;40422;45.892;4.738;2023-07-13T08:03:35;24.70;95.90
54516;DHT22;40422;45.892;4.738;2023-07-13T08:06:01;24.90;97.10
54516;DHT22;40422;45.892;4.738;2023-07-13T08:08:27;25.20;95.70
54516;DHT22;40422;45.892;4.738;2023-07-13T08:10:53;25.30;97.30
54516;DHT22;40422;45.892;4.738;2023-07-13T08:13:19;25.00;91.60
54516;DHT22;40422;45.892;4.738;2023-07-13T08:15:46;24.70;93.40
54516;DHT22;40422;45.892;4.738;2023-07-13T08:18:12;24.70;95.70
54516;DHT22;40422;45.892;4.738;2023-07-13T08:20:40;24.90;94.80
54516;DHT22;40422;45.892;4.738;2023-07-13T08:23:07;25.20;95.60
54516;DHT22;40422;45.892;4.738;2023-07-13T08:25:34;25.00;91.60
54516;DHT22;40422;45.892;4.738;2023-07-13T08:28:01;24.80;92.10
54516;DHT22;40422;45.892;4.738;2023-07-13T08:30:27;24.80;92.20
54516;DHT22;40422;45.892;4.738;2023-07-13T08:32:53;24.70;92.90
54516;DHT22;40422;45.892;4.738;2023-07-13T08:35:19;24.90;93.30
54516;DHT22;40422;45.892;4.738;2023-07-13T08:37:44;25.00;92.40
54516;DHT22;40422;45.892;4.738;2023-07-13T08:40:11;24.80;92.60
54516;DHT22;40422;45.892;4.738;2023-07-13T08:42:41;24.90;92.40
54516;DHT22;40422;45.892;4.738;2023-07-13T08:45:24;25.00;92.50
54516;DHT22;40422;45.892;4.738;2023-07-13T08:48:24;24.90;91.30
54516;DHT22;40422;45.892;4.738;2023-07-13T08:53:46;25.40;91.20
54516;DHT22;40422;45.892;4.738;2023-07-13T08:56:23;25.70;91.60
54516;DHT22;40422;45.892;4.738;2023-07-13T08:58:58;26.00;90.90
54516;DHT22;40422;45.892;4.738;2023-07-13T09:01:41;26.40;93.90
54516;DHT22;40422;45.892;4.738;2023-07-13T09:04:14;26.80;90.20
54516;DHT22;40422;45.892;4.738;2023-07-13T09:07:07;26.90;87.60
54516;DHT22;40422;45.892;4.738;2023-07-13T09:09:59;26.60;87.20
54516;DHT22;40422;45.892;4.738;2023-07-13T09:15:02;26.60;90.00
54516;DHT22;40422;45.892;4.738;2023-07-13T09:17:40;26.70;88.10
54516;DHT22;40422;45.892;4.738;2023-07-13T09:20:31;26.70;86.40
54516;DHT22;40422;45.892;4.738;2023-07-13T09:23:03;26.90;85.60
54516;DHT22;40422;45.892;4.738;2023-07-13T09:25:35;27.00;86.00
54516;DHT22;40422;45.892;4.738;2023-07-13T09:28:18;27.30;84.40
54516;DHT22;40422;45.892;4.738;2023-07-13T09:31:06;27.50;81.90
54516;DHT22;40422;45.892;4.738;2023-07-13T09:33:32;27.70;81.50
54516;DHT22;40422;45.892;4.738;2023-07-13T09:36:00;27.80;80.90
54516;DHT22;40422;45.892;4.738;2023-07-13T09:38:29;27.80;84.80
54516;DHT22;40422;45.892;4.738;2023-07-13T09:41:21;27.60;80.80
54516;DHT22;40422;45.892;4.738;2023-07-13T09:44:14;27.60;82.00
54516;DHT22;40422;45.892;4.738;2023-07-13T09:46:52;27.80;81.10
54516;DHT22;40422;45.892;4.738;2023-07-13T09:49:26;28.00;77.50
54516;DHT22;40422;45.892;4.738;2023-07-13T09:52:01;28.20;76.40
54516;DHT22;40422;45.892;4.738;2023-07-13T09:54:28;28.10;75.80
54516;DHT22;40422;45.892;4.738;2023-07-13T09:56:58;28.10;77.70
54516;DHT22;40422;45.892;4.738;2023-07-13T09:59:34;28.10;75.20
54516;DHT22;40422;45.892;4.738;2023-07-13T10:02:00;28.10;74.60
54516;DHT22;40422;45.892;4.738;2023-07-13T10:04:32;28.20;79.80
54516;DHT22;40422;45.892;4.738;2023-07-13T10:07:11;28.60;76.60
54516;DHT22;40422;45.892;4.738;2023-07-13T10:09:38;28.60;74.60
54516;DHT22;40422;45.892;4.738;2023-07-13T10:12:13;28.20;75.70
54516;DHT22;40422;45.892;4.738;2023-07-13T10:14:40;27.90;75.60
54516;DHT22;40422;45.892;4.738;2023-07-13T10:17:12;27.90;76.30
54516;DHT22;40422;45.892;4.738;2023-07-13T10:19:38;28.40;78.40
54516;DHT22;40422;45.892;4.738;2023-07-13T10:25:21;28.90;73.40
54516;DHT22;40422;45.892;4.738;2023-07-13T10:27:50;28.70;73.80
54516;DHT22;40422;45.892;4.738;2023-07-13T10:30:28;28.90;74.40
54516;DHT22;40422;45.892;4.738;2023-07-13T10:32:58;29.20;74.70
54516;DHT22;40422;45.892;4.738;2023-07-13T10:35:25;29.40;73.40
54516;DHT22;40422;45.892;4.738;2023-07-13T10:38:02;29.30;72.70
54516;DHT22;40422;45.892;4.738;2023-07-13T10:40:43;29.20;72.50
54516;DHT22;40422;45.892;4.738;2023-07-13T10:43:20;28.90;73.10
54516;DHT22;40422;45.892;4.738;2023-07-13T10:45:48;29.00;74.10
54516;DHT22;40422;45.892;4.738;2023-07-13T10:48:16;29.20;72.40
54516;DHT22;40422;45.892;4.738;2023-07-13T10:50:44;29.30;69.90
54516;DHT22;40422;45.892;4.738;2023-07-13T10:53:27;29.50;71.70
54516;DHT22;40422;45.892;4.738;2023-07-13T11:03:34;28.50;71.90
54516;DHT22;40422;45.892;4.738;2023-07-13T11:06:28;28.30;72.00
54516;DHT22;40422;45.892;4.738;2023-07-13T11:09:41;28.20;71.40
54516;DHT22;40422;45.892;4.738;2023-07-13T11:11:49;28.70;74.90
54516;DHT22;40422;45.892;4.738;2023-07-13T11:16:54;29.40;70.00
54516;DHT22;40422;45.892;4.738;2023-07-13T11:24:57;30.10;67.50
54516;DHT22;40422;45.892;4.738;2023-07-13T11:30:22;30.00;69.00
54516;DHT22;40422;45.892;4.738;2023-07-13T11:33:16;29.90;68.90
54516;DHT22;40422;45.892;4.738;2023-07-13T11:38:36;29.90;68.50
54516;DHT22;40422;45.892;4.738;2023-07-13T11:41:27;30.60;68.70
54516;DHT22;40422;45.892;4.738;2023-07-13T11:44:02;31.30;66.80
54516;DHT22;40422;45.892;4.738;2023-07-13T11:46:30;31.40;67.30
54516;DHT22;40422;45.892;4.738;2023-07-13T11:48:55;31.10;64.30
54516;DHT22;40422;45.892;4.738;2023-07-13T11:51:22;30.60;65.80
54516;DHT22;40422;45.892;4.738;2023-07-13T11:53:50;30.60;65.10
54516;DHT22;40422;45.892;4.738;2023-07-13T11:56:17;31.20;64.80
54516;DHT22;40422;45.892;4.738;2023-07-13T11:58:44;31.70;64.40
54516;DHT22;40422;45.892;4.738;2023-07-13T12:01:17;32.30;62.90
54516;DHT22;40422;45.892;4.738;2023-07-13T12:03:44;32.30;62.30
54516;DHT22;40422;45.892;4.738;2023-07-13T12:06:30;31.70;62.40
54516;DHT22;40422;45.892;4.738;2023-07-13T12:08:58;32.00;62.70
54516;DHT22;40422;45.892;4.738;2023-07-13T12:11:24;31.50;61.50
54516;DHT22;40422;45.892;4.738;2023-07-13T12:13:50;30.90;63.20
54516;DHT22;40422;45.892;4.738;2023-07-13T12:16:22;30.60;64.50
54516;DHT22;40422;45.892;4.738;2023-07-13T12:18:52;30.60;63.80
54516;DHT22;40422;45.892;4.738;2023-07-13T12:21:19;30.60;64.60
54516;DHT22;40422;45.892;4.738;2023-07-13T12:23:48;30.90;63.40
54516;DHT22;40422;45.892;4.738;2023-07-13T12:26:15;31.10;62.60
54516;DHT22;40422;45.892;4.738;2023-07-13T12:28:53;30.50;63.80
54516;DHT22;40422;45.892;4.738;2023-07-13T12:34:00;30.50;64.30
54516;DHT22;40422;45.892;4.738;2023-07-13T12:36:26;30.40;65.90
54516;DHT22;40422;45.892;4.738;2023-07-13T12:38:54;30.20;64.20
54516;DHT22;40422;45.892;4.738;2023-07-13T12:41:20;30.10;63.90
54516;DHT22;40422;45.892;4.738;2023-07-13T12:43:48;30.30;65.80
54516;DHT22;40422;45.892;4.738;2023-07-13T12:46:23;30.70;64.10
54516;DHT22;40422;45.892;4.738;2023-07-13T12:48:59;31.30;63.50
54516;DHT22;40422;45.892;4.738;2023-07-13T12:51:26;31.20;63.20
54516;DHT22;40422;45.892;4.738;2023-07-13T12:54:12;31.40;66.90
54516;DHT22;40422;45.892;4.738;2023-07-13T12:56:38;32.10;64.50
54516;DHT22;40422;45.892;4.738;2023-07-13T12:59:04;32.60;63.40
54516;DHT22;40422;45.892;4.738;2023-07-13T13:01:34;33.20;63.50
54516;DHT22;40422;45.892;4.738;2023-07-13T13:04:03;33.60;60.60
54516;DHT22;40422;45.892;4.738;2023-07-13T13:06:34;33.90;61.10
54516;DHT22;40422;45.892;4.738;2023-07-13T13:09:01;34.00;60.30
54516;DHT22;40422;45.892;4.738;2023-07-13T13:11:30;33.90;61.80
54516;DHT22;40422;45.892;4.738;2023-07-13T13:13:57;33.40;58.30
54516;DHT22;40422;45.892;4.738;2023-07-13T13:16:32;33.10;59.90
54516;DHT22;40422;45.892;4.738;2023-07-13T13:19:20;33.30;59.60
54516;DHT22;40422;45.892;4.738;2023-07-13T13:21:47;33.80;62.20
54516;DHT22;40422;45.892;4.738;2023-07-13T13:24:17;34.00;59.10
54516;DHT22;40422;45.892;4.738;2023-07-13T13:26:44;33.40;59.70
54516;DHT22;40422;45.892;4.738;2023-07-13T13:29:17;33.20;59.60
54516;DHT22;40422;45.892;4.738;2023-07-13T13:31:44;33.20;59.00
54516;DHT22;40422;45.892;4.738;2023-07-13T13:34:12;32.30;58.40
54516;DHT22;40422;45.892;4.738;2023-07-13T13:36:39;32.30;59.90
54516;DHT22;40422;45.892;4.738;2023-07-13T13:39:34;32.50;59.90
54516;DHT22;40422;45.892;4.738;2023-07-13T13:42:00;32.70;60.00
54516;DHT22;40422;45.892;4.738;2023-07-13T13:44:30;32.50;59.00
54516;DHT22;40422;45.892;4.738;2023-07-13T13:46:56;31.90;58.70
54516;DHT22;40422;45.892;4.738;2023-07-13T13:49:29;30.90;60.00
54516;DHT22;40422;45.892;4.738;2023-07-13T13:51:56;30.70;58.70
54516;DHT22;40422;45.892;4.738;2023-07-13T13:54:23;30.90;60.70
54516;DHT22;40422;45.892;4.738;2023-07-13T13:56:50;30.80;61.50
54516;DHT22;40422;45.892;4.738;2023-07-13T13:59:16;31.00;60.70
54516;DHT22;40422;45.892;4.738;2023-07-13T14:01:44;31.60;61.80
54516;DHT22;40422;45.892;4.738;2023-07-13T14:04:21;32.10;58.70
54516;DHT22;40422;45.892;4.738;2023-07-13T14:06:47;32.20;59.40
54516;DHT22;40422;45.892;4.738;2023-07-13T14:09:16;32.30;58.70
54516;DHT22;40422;45.892;4.738;2023-07-13T14:11:44;32.60;59.00
54516;DHT22;40422;45.892;4.738;2023-07-13T14:14:19;32.70;58.10
54516;DHT22;40422;45.892;4.738;2023-07-13T14:16:45;33.00;59.00
54516;DHT22;40422;45.892;4.738;2023-07-13T14:19:13;33.10;58.50
54516;DHT22;40422;45.892;4.738;2023-07-13T14:21:39;33.20;57.90
54516;DHT22;40422;45.892;4.738;2023-07-13T14:24:05;33.30;58.20
54516;DHT22;40422;45.892;4.738;2023-07-13T14:26:39;33.40;58.00
54516;DHT22;40422;45.892;4.738;2023-07-13T14:29:12;33.20;58.30
54516;DHT22;40422;45.892;4.738;2023-07-13T14:31:38;32.80;57.80
54516;DHT22;40422;45.892;4.738;2023-07-13T14:34:11;32.50;58.30
54516;DHT22;40422;45.892;4.738;2023-07-13T14:36:41;32.60;60.10
54516;DHT22;40422;45.892;4.738;2023-07-13T14:39:14;32.50;58.10
54516;DHT22;40422;45.892;4.738;2023-07-13T14:41:40;32.50;58.20
54516;DHT22;40422;45.892;4.738;2023-07-13T14:44:26;32.70;58.20
54516;DHT22;40422;45.892;4.738;2023-07-13T14:46:54;32.70;58.70
54516;DHT22;40422;45.892;4.738;2023-07-13T14:51:52;33.00;57.30
54516;DHT22;40422;45.892;4.738;2023-07-13T14:54:18;33.50;57.30
54516;DHT22;40422;45.892;4.738;2023-07-13T14:56:44;33.90;58.10
54516;DHT22;40422;45.892;4.738;2023-07-13T14:59:10;34.20;57.20
54516;DHT22;40422;45.892;4.738;2023-07-13T15:01:39;33.80;56.70
54516;DHT22;40422;45.892;4.738;2023-07-13T15:04:05;32.80;57.30
54516;DHT22;40422;45.892;4.738;2023-07-13T15:06:31;32.70;58.20
54516;DHT22;40422;45.892;4.738;2023-07-13T15:08:57;32.80;57.80
54516;DHT22;40422;45.892;4.738;2023-07-13T15:11:23;33.00;57.00
54516;DHT22;40422;45.892;4.738;2023-07-13T15:13:49;33.30;56.70
54516;DHT22;40422;45.892;4.738;2023-07-13T15:16:23;33.80;57.10
54516;DHT22;40422;45.892;4.738;2023-07-13T15:18:50;34.10;55.80
54516;DHT22;40422;45.892;4.738;2023-07-13T15:21:22;34.00;56.00
54516;DHT22;40422;45.892;4.738;2023-07-13T15:23:49;32.80;57.40
54516;DHT22;40422;45.892;4.738;2023-07-13T15:26:17;32.70;57.10
54516;DHT22;40422;45.892;4.738;2023-07-13T15:28:44;32.50;56.70
54516;DHT22;40422;45.892;4.738;2023-07-13T15:31:22;32.40;56.40
54516;DHT22;40422;45.892;4.738;2023-07-13T15:33:49;32.50;56.00
54516;DHT22;40422;45.892;4.738;2023-07-13T15:36:19;32.60;56.40
54516;DHT22;40422;45.892;4.738;2023-07-13T15:38:46;32.80;56.30
54516;DHT22;40422;45.892;4.738;2023-07-13T15:43:55;33.20;56.50
54516;DHT22;40422;45.892;4.738;2023-07-13T15:46:24;33.20;56.30
54516;DHT22;40422;45.892;4.738;2023-07-13T15:48:50;32.90;55.70
54516;DHT22;40422;45.892;4.738;2023-07-13T15:51:27;32.60;56.80
54516;DHT22;40422;45.892;4.738;2023-07-13T15:53:55;32.70;57.60
54516;DHT22;40422;45.892;4.738;2023-07-13T15:56:34;32.80;56.40
54516;DHT22;40422;45.892;4.738;2023-07-13T15:59:05;33.00;57.00
54516;DHT22;40422;45.892;4.738;2023-07-13T16:01:31;33.20;56.00
54516;DHT22;40422;45.892;4.738;2023-07-13T16:03:57;33.50;56.20
54516;DHT22;40422;45.892;4.738;2023-07-13T16:06:29;33.80;54.80
54516;DHT22;40422;45.892;4.738;2023-07-13T16:08:56;34.10;54.00
54516;DHT22;40422;45.892;4.738;2023-07-13T16:11:25;34.20;54.80
54516;DHT22;40422;45.892;4.738;2023-07-13T16:13:52;34.30;54.80
54516;DHT22;40422;45.892;4.738;2023-07-13T16:16:22;34.20;54.80
54516;DHT22;40422;45.892;4.738;2023-07-13T16:18:54;34.00;55.00
54516;DHT22;40422;45.892;4.738;2023-07-13T16:21:35;33.80;54.40
54516;DHT22;40422;45.892;4.738;2023-07-13T16:24:03;33.70;55.20
54516;DHT22;40422;45.892;4.738;2023-07-13T16:26:37;33.20;55.40
54516;DHT22;40422;45.892;4.738;2023-07-13T16:29:24;32.80;55.60
54516;DHT22;40422;45.892;4.738;2023-07-13T16:34:30;32.70;55.10
54516;DHT22;40422;45.892;4.738;2023-07-13T16:36:56;32.60;56.50
54516;DHT22;40422;45.892;4.738;2023-07-13T16:39:22;32.80;56.70
54516;DHT22;40422;45.892;4.738;2023-07-13T16:41:51;33.00;56.50
54516;DHT22;40422;45.892;4.738;2023-07-13T16:44:18;33.20;55.40
54516;DHT22;40422;45.892;4.738;2023-07-13T16:46:46;33.40;55.20
54516;DHT22;40422;45.892;4.738;2023-07-13T16:49:25;33.50;55.80
54516;DHT22;40422;45.892;4.738;2023-07-13T16:51:52;33.50;55.00
54516;DHT22;40422;45.892;4.738;2023-07-13T16:54:19;33.50;54.50
54516;DHT22;40422;45.892;4.738;2023-07-13T16:56:48;33.50;54.60
54516;DHT22;40422;45.892;4.738;2023-07-13T16:59:19;33.60;55.30
54516;DHT22;40422;45.892;4.738;2023-07-13T17:01:46;33.70;55.00
54516;DHT22;40422;45.892;4.738;2023-07-13T17:04:15;33.80;54.20
54516;DHT22;40422;45.892;4.738;2023-07-13T17:06:44;33.80;55.40
54516;DHT22;40422;45.892;4.738;2023-07-13T17:09:12;33.80;55.00
54516;DHT22;40422;45.892;4.738;2023-07-13T17:11:41;33.90;54.50
54516;DHT22;40422;45.892;4.738;2023-07-13T17:14:17;33.80;54.60
54516;DHT22;40422;45.892;4.738;2023-07-13T17:16:51;33.50;54.80
54516;DHT22;40422;45.892;4.738;2023-07-13T17:19:19;33.10;54.90
54516;DHT22;40422;45.892;4.738;2023-07-13T17:21:47;32.90;55.00
54516;DHT22;40422;45.892;4.738;2023-07-13T17:24:19;32.70;55.50
54516;DHT22;40422;45.892;4.738;2023-07-13T17:26:48;32.30;55.70
54516;DHT22;40422;45.892;4.738;2023-07-13T17:29:16;31.80;57.00
54516;DHT22;40422;45.892;4.738;2023-07-13T17:31:42;31.60;56.70
54516;DHT22;40422;45.892;4.738;2023-07-13T17:34:12;31.70;56.50
54516;DHT22;40422;45.892;4.738;2023-07-13T17:36:38;31.80;56.40
54516;DHT22;40422;45.892;4.738;2023-07-13T17:39:19;31.90;56.10
54516;DHT22;40422;45.892;4.738;2023-07-13T17:41:46;32.00;56.60
54516;DHT22;40422;45.892;4.738;2023-07-13T17:44:13;31.80;56.20
54516;DHT22;40422;45.892;4.738;2023-07-13T17:46:39;31.70;55.90
54516;DHT22;40422;45.892;4.738;2023-07-13T17:51:48;31.90;56.70
54516;DHT22;40422;45.892;4.738;2023-07-13T17:54:15;32.00;56.30
54516;DHT22;40422;45.892;4.738;2023-07-13T17:56:41;31.90;56.40
54516;DHT22;40422;45.892;4.738;2023-07-13T17:59:07;31.70;56.30
54516;DHT22;40422;45.892;4.738;2023-07-13T18:01:32;31.40;56.10
54516;DHT22;40422;45.892;4.738;2023-07-13T18:04:00;31.10;56.80
54516;DHT22;40422;45.892;4.738;2023-07-13T18:06:33;31.10;57.50
54516;DHT22;40422;45.892;4.738;2023-07-13T18:09:03;31.00;57.00
54516;DHT22;40422;45.892;4.738;2023-07-13T18:11:37;30.70;57.00
54516;DHT22;40422;45.892;4.738;2023-07-13T18:14:10;30.70;58.00
54516;DHT22;40422;45.892;4.738;2023-07-13T18:16:38;30.60;58.00
54516;DHT22;40422;45.892;4.738;2023-07-13T18:19:05;30.60;58.00
54516;DHT22;40422;45.892;4.738;2023-07-13T18:21:33;30.50;57.80
54516;DHT22;40422;45.892;4.738;2023-07-13T18:23:59;30.40;58.20
54516;DHT22;40422;45.892;4.738;2023-07-13T18:26:25;30.30;58.00
54516;DHT22;40422;45.892;4.738;2023-07-13T18:28:51;30.20;58.00
54516;DHT22;40422;45.892;4.738;2023-07-13T18:31:21;30.10;58.00
54516;DHT22;40422;45.892;4.738;2023-07-13T18:33:50;29.90;58.00
54516;DHT22;40422;45.892;4.738;2023-07-13T18:36:19;29.90;58.10
54516;DHT22;40422;45.892;4.738;2023-07-13T18:38:45;29.70;58.20
54516;DHT22;40422;45.892;4.738;2023-07-13T18:41:13;29.60;58.70
54516;DHT22;40422;45.892;4.738;2023-07-13T18:43:38;29.50;58.90
54516;DHT22;40422;45.892;4.738;2023-07-13T18:46:33;29.40;59.10
54516;DHT22;40422;45.892;4.738;2023-07-13T18:49:01;29.20;59.40
54516;DHT22;40422;45.892;4.738;2023-07-13T18:51:27;29.10;60.20
54516;DHT22;40422;45.892;4.738;2023-07-13T18:53:53;28.90;60.40
54516;DHT22;40422;45.892;4.738;2023-07-13T18:56:19;28.80;60.40
54516;DHT22;40422;45.892;4.738;2023-07-13T18:58:45;28.60;60.50
54516;DHT22;40422;45.892;4.738;2023-07-13T19:01:22;28.50;61.00
54516;DHT22;40422;45.892;4.738;2023-07-13T19:03:50;28.40;62.20
54516;DHT22;40422;45.892;4.738;2023-07-13T19:06:17;28.20;62.50
54516;DHT22;40422;45.892;4.738;2023-07-13T19:08:47;28.10;62.90
54516;DHT22;40422;45.892;4.738;2023-07-13T19:11:19;28.00;63.30
54516;DHT22;40422;45.892;4.738;2023-07-13T19:13:45;27.80;64.20
54516;DHT22;40422;45.892;4.738;2023-07-13T19:16:16;27.60;64.50
54516;DHT22;40422;45.892;4.738;2023-07-13T19:18:45;27.40;64.90
54516;DHT22;40422;45.892;4.738;2023-07-13T19:21:26;27.20;65.40
54516;DHT22;40422;45.892;4.738;2023-07-13T19:23:54;26.70;65.40
54516;DHT22;40422;45.892;4.738;2023-07-13T19:26:28;26.40;66.70